KUG295 OEJN-OKKK
Flight info
| Callsign | KUG295 |
|---|---|
| Flight time | N/A |
| Altitude | 39000 |
| Route | DATAP DCT EGREP B417 HFR A788 SOROR |
| Aircraft | A346/H-SDE2E3FGHIJ3J4J5M1RWXY/LB1D1 |
Departure
| Time | 2026-04-28 19:39 |
|---|---|
| Airport | King Abdulaziz International Airport (OEJN) |
Arrival
| Time | N/A |
|---|---|
| Airport | Kuwait International Airport (OKKK) |
| Time | Latitude | Longitude | Altitude | Speed | Heading |
|---|---|---|---|---|---|
| 2026-04-28 19:17 | 21.67182 | 39.13620 | 42 ft | 0 kts | 249° |
| 2026-04-28 19:31 | 21.67183 | 39.13624 | 43 ft | 2 kts | 250° |
| 2026-04-28 19:31 | 21.67189 | 39.13643 | 41 ft | 3 kts | 255° |
| 2026-04-28 19:31 | 21.67191 | 39.13653 | 40 ft | 0 kts | 244° |
| 2026-04-28 19:32 | 21.67192 | 39.13653 | 40 ft | 0 kts | 244° |
| 2026-04-28 19:32 | 21.67193 | 39.13655 | 40 ft | 0 kts | 243° |
| 2026-04-28 19:33 | 21.67192 | 39.13652 | 40 ft | 0 kts | 243° |
| 2026-04-28 19:34 | 21.67195 | 39.13658 | 40 ft | 3 kts | 239° |
| 2026-04-28 19:34 | 21.67212 | 39.13679 | 39 ft | 5 kts | 181° |
| 2026-04-28 19:34 | 21.67232 | 39.13671 | 40 ft | 0 kts | 157° |
| 2026-04-28 19:37 | 21.67224 | 39.13674 | 41 ft | 6 kts | 157° |
| 2026-04-28 19:37 | 21.67191 | 39.13690 | 41 ft | 9 kts | 157° |
| 2026-04-28 19:37 | 21.67093 | 39.13729 | 44 ft | 13 kts | 160° |
| 2026-04-28 19:37 | 21.67028 | 39.13804 | 43 ft | 16 kts | 96° |
| 2026-04-28 19:38 | 21.67084 | 39.13916 | 43 ft | 19 kts | 30° |
| 2026-04-28 19:38 | 21.67202 | 39.13898 | 43 ft | 20 kts | 340° |
| 2026-04-28 19:38 | 21.67592 | 39.13742 | 45 ft | 99 kts | 340° |
| 2026-04-28 19:38 | 21.68468 | 39.13399 | 58 ft | 167 kts | 342° |
| 2026-04-28 19:39 | 21.69685 | 39.12924 | 596 ft | 201 kts | 340° |
| 2026-04-28 19:39 | 21.71086 | 39.12368 | 1324 ft | 226 kts | 341° |
| 2026-04-28 19:39 | 21.72569 | 39.11765 | 2165 ft | 232 kts | 337° |
| 2026-04-28 19:39 | 21.73968 | 39.10919 | 2804 ft | 237 kts | 321° |
| 2026-04-28 19:40 | 21.75209 | 39.09636 | 3350 ft | 257 kts | 311° |
| 2026-04-28 19:40 | 21.76497 | 39.08210 | 4019 ft | 273 kts | 316° |
| 2026-04-28 19:40 | 21.77974 | 39.06861 | 4793 ft | 284 kts | 317° |
| 2026-04-28 19:40 | 21.79401 | 39.05447 | 5480 ft | 273 kts | 311° |
| 2026-04-28 19:41 | 21.80660 | 39.03969 | 6064 ft | 273 kts | 309° |
| 2026-04-28 19:41 | 21.81973 | 39.02471 | 6637 ft | 277 kts | 311° |
| 2026-04-28 19:41 | 21.83370 | 39.01023 | 7203 ft | 281 kts | 313° |
| 2026-04-28 19:41 | 21.84867 | 38.99653 | 7785 ft | 286 kts | 321° |
| 2026-04-28 19:42 | 21.86541 | 38.98464 | 8368 ft | 289 kts | 322° |
| 2026-04-28 19:42 | 21.88198 | 38.97219 | 8980 ft | 291 kts | 320° |
| 2026-04-28 19:42 | 21.89857 | 38.95948 | 9605 ft | 295 kts | 325° |
| 2026-04-28 19:42 | 21.91080 | 38.95220 | 10014 ft | 299 kts | 331° |
| 2026-04-28 19:43 | 21.93702 | 38.94206 | 10815 ft | 306 kts | 341° |
| 2026-04-28 19:43 | 21.95777 | 38.93613 | 11472 ft | 313 kts | 342° |
| 2026-04-28 19:43 | 21.97910 | 38.93014 | 12195 ft | 320 kts | 342° |
| 2026-04-28 19:43 | 22.00129 | 38.92605 | 12951 ft | 330 kts | 354° |
| 2026-04-28 19:44 | 22.02453 | 38.92781 | 13743 ft | 340 kts | 8° |
| 2026-04-28 19:44 | 22.04696 | 38.93667 | 14419 ft | 351 kts | 30° |
| 2026-04-28 19:44 | 22.06533 | 38.95441 | 15038 ft | 362 kts | 51° |
| 2026-04-28 19:44 | 22.07884 | 38.97798 | 15488 ft | 377 kts | 64° |
| 2026-04-28 19:45 | 22.09065 | 39.00340 | 15938 ft | 391 kts | 63° |
| 2026-04-28 19:45 | 22.10281 | 39.03049 | 16524 ft | 400 kts | 65° |
| 2026-04-28 19:45 | 22.11399 | 39.05793 | 17137 ft | 408 kts | 67° |
| 2026-04-28 19:45 | 22.12501 | 39.08649 | 17783 ft | 415 kts | 68° |
| 2026-04-28 19:46 | 22.13589 | 39.11608 | 18423 ft | 422 kts | 69° |
| 2026-04-28 19:46 | 22.14615 | 39.14550 | 19017 ft | 426 kts | 70° |
| 2026-04-28 19:46 | 22.15620 | 39.17580 | 19644 ft | 430 kts | 71° |
| 2026-04-28 19:46 | 22.16590 | 39.20652 | 20285 ft | 434 kts | 72° |
| 2026-04-28 19:47 | 22.17526 | 39.23765 | 20927 ft | 438 kts | 72° |
| 2026-04-28 19:47 | 22.18698 | 39.26824 | 21487 ft | 445 kts | 62° |
| 2026-04-28 19:47 | 22.20407 | 39.29664 | 21763 ft | 458 kts | 54° |
| 2026-04-28 19:47 | 22.22259 | 39.32520 | 22043 ft | 470 kts | 55° |
| 2026-04-28 19:48 | 22.24032 | 39.35525 | 22459 ft | 478 kts | 58° |
| 2026-04-28 19:48 | 22.25700 | 39.38657 | 23012 ft | 483 kts | 60° |
| 2026-04-28 19:48 | 22.27295 | 39.41872 | 23535 ft | 488 kts | 62° |
| 2026-04-28 19:48 | 22.28853 | 39.45152 | 23941 ft | 493 kts | 63° |
| 2026-04-28 19:49 | 22.30399 | 39.48476 | 24373 ft | 497 kts | 63° |
| 2026-04-28 19:49 | 22.31942 | 39.51826 | 24828 ft | 500 kts | 63° |
| 2026-04-28 19:49 | 22.33494 | 39.55210 | 25262 ft | 503 kts | 63° |
| 2026-04-28 19:49 | 22.35054 | 39.58615 | 25693 ft | 507 kts | 63° |
| 2026-04-28 19:50 | 22.38216 | 39.65490 | 26553 ft | 513 kts | 62° |
| 2026-04-28 19:50 | 22.39812 | 39.68955 | 26973 ft | 517 kts | 62° |
| 2026-04-28 19:50 | 22.41421 | 39.72452 | 27353 ft | 520 kts | 62° |
| 2026-04-28 19:51 | 22.43036 | 39.75967 | 27706 ft | 524 kts | 62° |
| 2026-04-28 19:51 | 22.44705 | 39.79487 | 28067 ft | 526 kts | 58° |
| 2026-04-28 19:51 | 22.46685 | 39.82813 | 28451 ft | 526 kts | 51° |
| 2026-04-28 19:51 | 22.49021 | 39.85859 | 28884 ft | 525 kts | 43° |
| 2026-04-28 19:52 | 22.51650 | 39.88599 | 29197 ft | 525 kts | 38° |
| 2026-04-28 19:52 | 22.54391 | 39.91219 | 29513 ft | 526 kts | 36° |
| 2026-04-28 19:52 | 22.57163 | 39.93815 | 29924 ft | 526 kts | 36° |
| 2026-04-28 19:52 | 22.59931 | 39.96409 | 30350 ft | 526 kts | 36° |
| 2026-04-28 19:53 | 22.62689 | 39.99008 | 30748 ft | 525 kts | 36° |
| 2026-04-28 19:53 | 22.65437 | 40.01613 | 31154 ft | 524 kts | 36° |
| 2026-04-28 19:53 | 22.68173 | 40.04218 | 31591 ft | 523 kts | 36° |
| 2026-04-28 19:53 | 22.70866 | 40.06791 | 32039 ft | 522 kts | 36° |
| 2026-04-28 19:54 | 22.73588 | 40.09399 | 32452 ft | 522 kts | 36° |
| 2026-04-28 19:54 | 22.76305 | 40.12002 | 32877 ft | 521 kts | 36° |
| 2026-04-28 19:54 | 22.79021 | 40.14605 | 33300 ft | 520 kts | 36° |
| 2026-04-28 19:54 | 22.81730 | 40.17204 | 33759 ft | 519 kts | 36° |
| 2026-04-28 19:55 | 22.84431 | 40.19797 | 34205 ft | 518 kts | 37° |
| 2026-04-28 19:55 | 22.87127 | 40.22385 | 34595 ft | 517 kts | 37° |
| 2026-04-28 19:55 | 22.89816 | 40.24966 | 35012 ft | 516 kts | 37° |
| 2026-04-28 19:55 | 22.92505 | 40.27551 | 35395 ft | 515 kts | 37° |
| 2026-04-28 19:56 | 22.95186 | 40.30129 | 35770 ft | 515 kts | 37° |
| 2026-04-28 19:56 | 22.97866 | 40.32708 | 36156 ft | 514 kts | 37° |